createdAt,value
2023-01-21T00:01:01.364Z,2.20
2023-01-21T00:03:28.270Z,2.20
2023-01-21T00:05:55.367Z,2.40
2023-01-21T00:08:22.102Z,3.65
2023-01-21T00:10:48.883Z,3.42
2023-01-21T00:13:15.785Z,4.07
2023-01-21T00:15:42.861Z,5.00
2023-01-21T00:18:09.659Z,5.05
2023-01-21T00:20:36.844Z,4.60
2023-01-21T00:23:04.089Z,4.50
2023-01-21T00:25:31.058Z,4.70
2023-01-21T00:28:00.125Z,3.75
2023-01-21T00:30:27.140Z,3.50
2023-01-21T00:32:53.993Z,2.90
2023-01-21T00:35:20.882Z,4.07
2023-01-21T00:37:47.751Z,3.13
2023-01-21T00:40:15.005Z,4.10
2023-01-21T00:42:41.906Z,3.45
2023-01-21T00:45:09.433Z,4.03
2023-01-21T00:47:36.213Z,3.35
2023-01-21T00:50:03.971Z,5.03
2023-01-21T00:52:30.813Z,3.28
2023-01-21T00:54:57.626Z,3.17
2023-01-21T00:57:24.374Z,3.78
2023-01-21T00:59:51.649Z,3.35
2023-01-21T01:02:21.346Z,3.33
2023-01-21T01:04:48.092Z,3.17
2023-01-21T01:07:14.921Z,3.67
2023-01-21T01:09:41.777Z,2.40
2023-01-21T01:12:08.675Z,1.95
2023-01-21T01:14:35.489Z,2.08
2023-01-21T01:17:02.354Z,2.20
2023-01-21T01:19:29.193Z,2.17
2023-01-21T01:21:55.981Z,1.77
2023-01-21T01:24:22.796Z,2.92
2023-01-21T01:26:49.569Z,2.03
2023-01-21T01:29:16.447Z,2.13
2023-01-21T01:31:44.279Z,3.05
2023-01-21T01:34:11.097Z,1.35
2023-01-21T01:36:37.935Z,3.22
2023-01-21T01:39:05.588Z,1.92
2023-01-21T01:41:35.176Z,1.80
2023-01-21T01:44:04.423Z,1.10
2023-01-21T01:46:33.908Z,1.48
2023-01-21T01:49:03.845Z,1.02
2023-01-21T01:51:39.370Z,0.90
2023-01-21T01:54:07.519Z,1.13
2023-01-21T01:56:37.442Z,0.75
2023-01-21T01:59:04.318Z,1.02
2023-01-21T02:01:31.263Z,1.48
2023-01-21T02:04:00.897Z,0.75
2023-01-21T02:06:27.939Z,1.63
2023-01-21T02:08:56.008Z,0.68
2023-01-21T02:11:22.881Z,1.10
2023-01-21T02:13:56.514Z,2.25
2023-01-21T02:16:47.452Z,1.25
2023-01-21T02:19:14.162Z,1.30
2023-01-21T02:22:13.450Z,1.90
2023-01-21T02:25:18.804Z,1.67
2023-01-21T02:27:53.621Z,1.38
2023-01-21T02:30:35.348Z,1.10
2023-01-21T02:33:09.519Z,1.98
2023-01-21T02:36:05.228Z,1.50
2023-01-21T02:38:35.020Z,4.38
2023-01-21T02:41:27.526Z,6.03
2023-01-21T02:44:01.884Z,6.70
2023-01-21T02:46:44.002Z,6.57
2023-01-21T02:49:24.590Z,6.35
2023-01-21T02:51:51.393Z,6.00
2023-01-21T02:54:40.202Z,6.03
2023-01-21T02:57:14.185Z,9.10
2023-01-21T02:59:46.089Z,8.20
2023-01-21T03:02:25.777Z,7.75
2023-01-21T03:04:55.622Z,7.45
2023-01-21T03:07:40.783Z,7.47
2023-01-21T03:10:24.068Z,11.95
2023-01-21T03:13:05.455Z,9.25
2023-01-21T03:16:13.077Z,7.93
2023-01-21T03:18:46.148Z,7.03
2023-01-21T03:21:21.222Z,9.70
2023-01-21T03:23:51.617Z,8.52
2023-01-21T03:26:24.186Z,10.60
2023-01-21T03:28:54.821Z,9.95
2023-01-21T03:31:26.086Z,11.40
2023-01-21T03:33:55.659Z,11.20
2023-01-21T03:36:37.118Z,9.45
2023-01-21T03:39:16.340Z,10.73
2023-01-21T03:41:43.244Z,10.80
2023-01-21T03:44:10.467Z,11.07
2023-01-21T03:46:43.445Z,13.13
2023-01-21T03:49:15.745Z,17.15
2023-01-21T03:51:49.298Z,14.02
2023-01-21T03:54:16.251Z,13.02
2023-01-21T03:56:43.070Z,14.68
2023-01-21T03:59:09.893Z,11.15
2023-01-21T04:01:36.757Z,9.80
2023-01-21T04:04:03.546Z,10.73
2023-01-21T04:06:30.378Z,11.50
2023-01-21T04:08:57.143Z,12.98
2023-01-21T04:11:24.148Z,13.80
2023-01-21T04:13:50.998Z,12.10
2023-01-21T04:16:17.775Z,12.70
2023-01-21T04:18:44.543Z,13.07
2023-01-21T04:21:11.388Z,13.85
2023-01-21T04:23:38.107Z,15.63
2023-01-21T04:26:04.923Z,15.93
2023-01-21T04:28:31.842Z,13.45
2023-01-21T04:30:58.609Z,15.95
2023-01-21T04:33:25.597Z,15.20
2023-01-21T04:35:56.767Z,17.17
2023-01-21T04:38:23.493Z,14.77
2023-01-21T04:40:50.255Z,12.43
2023-01-21T04:43:17.169Z,11.73
2023-01-21T04:45:43.960Z,14.90
2023-01-21T04:48:10.926Z,12.18
2023-01-21T04:50:37.716Z,15.90
2023-01-21T04:53:04.709Z,14.32
2023-01-21T04:55:31.489Z,12.77
2023-01-21T04:57:58.288Z,14.52
2023-01-21T05:00:25.122Z,12.40
2023-01-21T05:02:52.010Z,11.80
2023-01-21T05:05:19.884Z,13.40
2023-01-21T05:07:53.451Z,12.07
2023-01-21T05:10:20.561Z,12.00
2023-01-21T05:12:48.738Z,12.70
2023-01-21T05:15:15.819Z,17.38
2023-01-21T05:17:42.881Z,15.82
2023-01-21T05:20:13.303Z,11.40
2023-01-21T05:22:40.187Z,16.75
2023-01-21T05:25:07.326Z,15.50
2023-01-21T05:27:34.663Z,14.75
2023-01-21T05:30:01.833Z,13.70
2023-01-21T05:32:28.558Z,14.20
2023-01-21T05:34:55.335Z,13.77
2023-01-21T05:37:22.171Z,12.93
2023-01-21T05:39:48.974Z,13.32
2023-01-21T05:42:15.805Z,13.32
2023-01-21T05:44:42.521Z,12.95
2023-01-21T05:47:09.336Z,10.68
2023-01-21T05:49:36.252Z,8.80
2023-01-21T05:52:03.060Z,9.77
2023-01-21T05:54:30.099Z,9.65
2023-01-21T05:56:56.982Z,7.70
2023-01-21T05:59:23.915Z,6.95
2023-01-21T06:01:50.721Z,7.47
2023-01-21T06:04:17.531Z,4.78
2023-01-21T06:06:44.391Z,3.70
2023-01-21T06:09:11.354Z,4.93
2023-01-21T06:11:38.229Z,4.68
2023-01-21T06:14:04.955Z,5.47
2023-01-21T06:16:31.808Z,5.35
2023-01-21T06:18:59.134Z,5.18
2023-01-21T06:21:25.936Z,6.10
2023-01-21T06:23:52.813Z,4.25
2023-01-21T06:26:19.648Z,4.55
2023-01-21T06:28:46.530Z,5.05
2023-01-21T06:31:13.540Z,5.03
2023-01-21T06:33:40.419Z,6.03
2023-01-21T06:36:07.647Z,5.80
2023-01-21T06:38:36.125Z,5.47
2023-01-21T06:41:03.289Z,5.25
2023-01-21T06:43:30.086Z,3.58
2023-01-21T06:45:57.020Z,4.38
2023-01-21T06:48:23.895Z,4.28
2023-01-21T06:50:50.809Z,3.95
2023-01-21T06:53:17.654Z,4.07
2023-01-21T06:55:44.414Z,4.40
2023-01-21T06:58:11.162Z,4.70
2023-01-21T07:00:37.991Z,6.40
2023-01-21T07:03:04.867Z,5.32
2023-01-21T07:05:31.666Z,5.00
2023-01-21T07:07:58.450Z,5.07
2023-01-21T07:10:25.401Z,6.93
2023-01-21T07:12:52.353Z,6.75
2023-01-21T07:15:19.442Z,4.97
2023-01-21T07:17:46.453Z,5.32
2023-01-21T07:20:13.453Z,5.57
2023-01-21T07:22:40.308Z,7.30
2023-01-21T07:25:08.087Z,7.72
2023-01-21T07:27:34.831Z,7.82
2023-01-21T07:30:01.713Z,7.75
2023-01-21T07:32:28.605Z,9.27
2023-01-21T07:34:55.373Z,9.50
2023-01-21T07:37:22.207Z,9.90
2023-01-21T07:39:48.993Z,12.38
2023-01-21T07:42:15.824Z,9.73
2023-01-21T07:44:42.602Z,9.90
2023-01-21T07:47:10.494Z,12.35
2023-01-21T07:49:37.678Z,12.55
2023-01-21T07:52:04.753Z,12.40
2023-01-21T07:54:31.981Z,8.38
2023-01-21T07:56:58.983Z,9.85
2023-01-21T07:59:25.794Z,7.70
2023-01-21T08:01:53.060Z,9.68
2023-01-21T08:04:19.937Z,8.80
2023-01-21T08:06:47.948Z,8.38
2023-01-21T08:09:14.767Z,6.88
2023-01-21T08:11:43.528Z,5.95
2023-01-21T08:14:10.341Z,4.80
2023-01-21T08:16:37.180Z,5.82
2023-01-21T08:19:03.983Z,5.68
2023-01-21T08:21:30.737Z,6.60
2023-01-21T08:23:57.535Z,6.78
2023-01-21T08:26:25.732Z,8.35
2023-01-21T08:28:55.554Z,5.78
2023-01-21T08:31:22.359Z,5.25
2023-01-21T08:33:49.110Z,5.70
2023-01-21T08:36:16.036Z,6.18
2023-01-21T08:38:44.087Z,8.02
2023-01-21T08:41:11.061Z,7.55
2023-01-21T08:43:37.936Z,7.82
2023-01-21T08:46:04.933Z,6.63
2023-01-21T08:48:31.719Z,6.68
2023-01-21T08:51:00.048Z,9.48
2023-01-21T08:53:27.518Z,4.95
2023-01-21T08:55:57.897Z,7.35
2023-01-21T08:58:24.646Z,6.38
2023-01-21T09:00:52.044Z,8.10
2023-01-21T09:03:19.860Z,5.93
2023-01-21T09:05:47.591Z,6.22
2023-01-21T09:08:14.401Z,5.72
2023-01-21T09:10:59.853Z,5.22
2023-01-21T09:13:29.312Z,5.95
2023-01-21T09:15:56.283Z,5.28
2023-01-21T09:18:23.087Z,3.33
2023-01-21T09:20:49.919Z,4.63
2023-01-21T09:23:25.678Z,4.55
2023-01-21T09:26:16.419Z,2.55
2023-01-21T09:28:45.156Z,3.80
2023-01-21T09:31:14.555Z,4.47
2023-01-21T09:33:44.221Z,3.10
2023-01-21T09:36:16.983Z,2.60
2023-01-21T09:38:44.721Z,2.97
2023-01-21T09:41:26.750Z,4.43
2023-01-21T09:43:59.659Z,3.88
2023-01-21T09:46:44.523Z,3.83
2023-01-21T09:49:30.725Z,2.30
2023-01-21T09:52:13.935Z,5.35
2023-01-21T09:54:40.857Z,4.35
2023-01-21T09:57:46.565Z,6.10
2023-01-21T10:00:28.292Z,4.65
2023-01-21T10:03:19.081Z,6.40
2023-01-21T10:06:17.305Z,7.20
2023-01-21T10:09:00.334Z,5.95
2023-01-21T10:11:37.956Z,5.63
2023-01-21T10:14:20.064Z,5.05
2023-01-21T10:17:10.943Z,6.10
2023-01-21T10:19:52.790Z,4.30
2023-01-21T10:22:24.936Z,3.58
2023-01-21T10:25:06.661Z,4.30
2023-01-21T10:27:37.901Z,5.32
2023-01-21T10:30:23.369Z,4.78
2023-01-21T10:32:52.743Z,4.13
2023-01-21T10:35:30.012Z,4.72
2023-01-21T10:38:14.112Z,4.15
2023-01-21T10:40:58.410Z,4.32
2023-01-21T10:44:00.516Z,5.10
2023-01-21T10:47:11.660Z,4.90
2023-01-21T10:50:00.007Z,3.72
2023-01-21T10:52:46.300Z,4.70
2023-01-21T10:55:34.749Z,5.60
2023-01-21T10:58:11.463Z,4.75
2023-01-21T11:00:44.955Z,4.75
2023-01-21T11:03:17.089Z,6.07
2023-01-21T11:05:44.586Z,4.07
2023-01-21T11:08:20.146Z,4.18
2023-01-21T11:10:50.411Z,4.68
2023-01-21T11:13:17.664Z,5.00
2023-01-21T11:15:50.628Z,5.22
2023-01-21T11:18:30.744Z,6.90
2023-01-21T11:21:00.717Z,4.85
2023-01-21T11:23:34.774Z,6.43
2023-01-21T11:26:04.552Z,6.55
2023-01-21T11:28:31.820Z,7.90
2023-01-21T11:31:14.803Z,9.43
2023-01-21T11:33:43.521Z,9.45
2023-01-21T11:36:19.042Z,17.45
2023-01-21T11:38:58.343Z,15.80
2023-01-21T11:41:25.738Z,16.02
2023-01-21T11:43:55.220Z,14.77
2023-01-21T11:46:35.495Z,16.38
2023-01-21T11:49:08.400Z,13.40
2023-01-21T11:51:36.922Z,13.02
2023-01-21T11:54:11.282Z,10.15
2023-01-21T11:56:39.099Z,13.20
2023-01-21T11:59:34.325Z,12.73
2023-01-21T12:02:22.387Z,11.88
2023-01-21T12:04:55.812Z,12.85
2023-01-21T12:07:43.099Z,10.18
2023-01-21T12:10:12.696Z,8.27
2023-01-21T12:12:56.741Z,9.00
2023-01-21T12:15:37.635Z,8.73
2023-01-21T12:18:26.044Z,7.85
2023-01-21T12:20:55.625Z,6.28
2023-01-21T12:23:33.180Z,10.48
2023-01-21T12:26:18.848Z,8.43
2023-01-21T12:28:56.111Z,11.98
2023-01-21T12:31:36.171Z,10.77
2023-01-21T12:34:24.751Z,12.52
2023-01-21T12:36:58.633Z,11.43
2023-01-21T12:39:34.011Z,11.30
2023-01-21T12:42:04.376Z,11.75
2023-01-21T12:44:44.206Z,9.30
2023-01-21T12:47:18.314Z,9.40
2023-01-21T12:50:41.425Z,9.70
2023-01-21T12:53:14.973Z,7.63
2023-01-21T12:55:54.976Z,7.90
2023-01-21T12:58:25.534Z,9.23
2023-01-21T13:00:54.933Z,8.73
2023-01-21T13:03:27.039Z,8.50
2023-01-21T13:06:02.638Z,9.57
2023-01-21T13:08:55.970Z,10.23
2023-01-21T13:11:46.511Z,8.55
2023-01-21T13:14:22.243Z,9.75
2023-01-21T13:16:54.632Z,11.95
2023-01-21T13:19:21.847Z,9.02
2023-01-21T13:21:56.160Z,11.70
2023-01-21T13:24:33.551Z,12.43
2023-01-21T13:27:13.222Z,12.05
2023-01-21T13:29:58.305Z,8.70
2023-01-21T13:32:47.267Z,8.32
2023-01-21T13:35:25.493Z,7.20
2023-01-21T13:38:20.294Z,7.65
2023-01-21T13:41:30.543Z,8.43
2023-01-21T13:44:18.222Z,7.25
2023-01-21T13:46:59.657Z,6.55
2023-01-21T13:49:44.806Z,8.00
2023-01-21T13:52:15.066Z,7.05
2023-01-21T13:54:58.030Z,8.10
2023-01-21T13:57:47.793Z,10.15
2023-01-21T14:00:26.564Z,7.30
2023-01-21T14:03:02.337Z,6.32
2023-01-21T14:05:32.063Z,6.57
2023-01-21T14:08:18.740Z,7.32
2023-01-21T14:11:15.322Z,5.82
2023-01-21T14:13:50.771Z,5.25
2023-01-21T14:17:03.029Z,4.72
2023-01-21T14:19:53.301Z,8.88
2023-01-21T14:22:26.147Z,10.18
2023-01-21T14:24:59.183Z,7.80
2023-01-21T14:27:50.005Z,7.28
2023-01-21T14:30:28.560Z,6.28
2023-01-21T14:33:13.270Z,5.53
2023-01-21T14:36:06.486Z,7.07
2023-01-21T14:38:52.739Z,7.20
2023-01-21T14:41:20.099Z,6.00
2023-01-21T14:43:49.919Z,6.47
2023-01-21T14:46:26.842Z,7.75
2023-01-21T14:49:07.951Z,6.35
2023-01-21T14:51:44.391Z,7.45
2023-01-21T14:54:15.092Z,6.80
2023-01-21T14:57:01.807Z,8.48
2023-01-21T14:59:42.339Z,5.82
2023-01-21T15:02:26.003Z,5.32
2023-01-21T15:04:56.740Z,4.15
2023-01-21T15:07:28.546Z,3.90
2023-01-21T15:09:58.536Z,3.50
2023-01-21T15:12:31.954Z,4.53
2023-01-21T15:15:23.598Z,3.33
2023-01-21T15:17:53.415Z,4.75
2023-01-21T15:20:45.863Z,4.25
2023-01-21T15:23:38.539Z,3.58
2023-01-21T15:26:08.932Z,4.13
2023-01-21T15:28:44.961Z,4.15
2023-01-21T15:31:21.042Z,4.38
2023-01-21T15:33:55.653Z,3.80
2023-01-21T15:36:46.951Z,3.22
2023-01-21T15:39:19.333Z,4.85
2023-01-21T15:42:19.006Z,3.75
2023-01-21T15:45:19.746Z,3.25
2023-01-21T15:48:08.505Z,4.40
2023-01-21T15:51:14.869Z,4.25
2023-01-21T15:53:53.929Z,2.83
2023-01-21T15:56:57.352Z,4.05
2023-01-21T15:59:35.485Z,4.97
2023-01-21T16:02:17.015Z,7.15
2023-01-21T16:05:08.505Z,6.13
2023-01-21T16:07:58.129Z,6.68
2023-01-21T16:10:37.422Z,6.47
2023-01-21T16:13:04.149Z,6.15
2023-01-21T16:15:34.112Z,7.25
2023-01-21T16:18:26.940Z,6.72
2023-01-21T16:20:55.780Z,6.43
2023-01-21T16:23:26.723Z,7.30
2023-01-21T16:25:53.631Z,8.30
2023-01-21T16:28:21.355Z,7.60
2023-01-21T16:30:59.648Z,7.10
2023-01-21T16:33:26.814Z,8.57
2023-01-21T16:35:57.028Z,6.50
2023-01-21T16:38:29.297Z,8.25
2023-01-21T16:41:08.096Z,7.57
2023-01-21T16:43:46.596Z,6.43
2023-01-21T16:46:19.063Z,5.53
2023-01-21T16:48:52.026Z,5.00
2023-01-21T16:51:22.188Z,5.65
2023-01-21T16:53:49.914Z,7.80
2023-01-21T16:56:29.115Z,7.78
2023-01-21T16:58:56.372Z,8.38
2023-01-21T17:01:26.470Z,6.35
2023-01-21T17:03:53.421Z,5.45
2023-01-21T17:06:31.014Z,5.15
2023-01-21T17:09:05.188Z,5.07
2023-01-21T17:11:33.362Z,4.70
2023-01-21T17:14:09.874Z,3.88
2023-01-21T17:16:39.371Z,5.05
2023-01-21T17:19:25.101Z,3.60
2023-01-21T17:21:56.906Z,6.15
2023-01-21T17:24:28.664Z,4.90
2023-01-21T17:27:01.926Z,3.40
2023-01-21T17:29:33.819Z,5.07
2023-01-21T17:32:31.100Z,7.90
2023-01-21T17:35:15.355Z,9.65
2023-01-21T17:37:50.720Z,11.60
2023-01-21T17:40:28.279Z,12.18
2023-01-21T17:42:55.956Z,9.20
2023-01-21T17:45:36.723Z,8.48
2023-01-21T17:48:09.738Z,6.68
2023-01-21T17:50:37.347Z,5.50
2023-01-21T17:53:07.214Z,7.45
2023-01-21T17:55:36.361Z,6.05
2023-01-21T17:58:24.707Z,5.35
2023-01-21T18:00:51.616Z,5.55
2023-01-21T18:03:18.390Z,6.85
2023-01-21T18:05:45.209Z,5.32
2023-01-21T18:08:16.703Z,5.43
2023-01-21T18:10:45.933Z,5.88
2023-01-21T18:13:20.659Z,6.43
2023-01-21T18:15:51.523Z,3.95
2023-01-21T18:18:26.129Z,3.67
2023-01-21T18:20:53.289Z,4.20
2023-01-21T18:23:20.155Z,4.45
2023-01-21T18:25:49.224Z,3.88
2023-01-21T18:28:21.425Z,3.30
2023-01-21T18:30:48.874Z,2.58
2023-01-21T18:33:16.509Z,3.53
2023-01-21T18:35:45.716Z,4.07
2023-01-21T18:38:21.719Z,3.00
2023-01-21T18:40:48.837Z,3.28
2023-01-21T18:43:15.676Z,3.60
2023-01-21T18:45:42.532Z,4.82
2023-01-21T18:48:15.484Z,3.83
2023-01-21T18:50:42.329Z,4.15
2023-01-21T18:53:09.279Z,5.63
2023-01-21T18:55:36.195Z,5.05
2023-01-21T18:58:04.581Z,3.92
2023-01-21T19:00:33.970Z,3.75
2023-01-21T19:03:02.333Z,3.75
2023-01-21T19:05:35.579Z,4.07
2023-01-21T19:08:05.410Z,4.82
2023-01-21T19:10:32.330Z,4.05
2023-01-21T19:12:59.523Z,6.55
2023-01-21T19:15:28.449Z,5.07
2023-01-21T19:17:56.607Z,7.22
2023-01-21T19:20:29.202Z,4.60
2023-01-21T19:22:56.457Z,4.20
2023-01-21T19:25:26.258Z,3.95
2023-01-21T19:27:56.423Z,2.88
2023-01-21T19:30:28.887Z,3.08
2023-01-21T19:32:57.809Z,2.97
2023-01-21T19:35:36.906Z,4.15
2023-01-21T19:38:10.848Z,2.65
2023-01-21T19:40:37.633Z,4.40
2023-01-21T19:43:04.506Z,6.05
2023-01-21T19:45:31.433Z,4.60
2023-01-21T19:47:58.448Z,7.30
2023-01-21T19:50:27.292Z,7.35
2023-01-21T19:52:54.726Z,7.78
2023-01-21T19:55:25.707Z,8.80
2023-01-21T19:58:02.001Z,14.75
2023-01-21T20:00:33.567Z,15.23
2023-01-21T20:03:01.357Z,16.83
2023-01-21T20:05:33.785Z,15.95
2023-01-21T20:08:01.789Z,18.67
2023-01-21T20:10:30.360Z,18.23
2023-01-21T20:12:57.514Z,15.15
2023-01-21T20:15:31.905Z,12.52
2023-01-21T20:18:01.905Z,11.48
2023-01-21T20:20:31.370Z,10.65
2023-01-21T20:22:59.192Z,8.73
2023-01-21T20:25:36.257Z,6.75
2023-01-21T20:28:14.553Z,7.18
2023-01-21T20:30:41.411Z,7.53
2023-01-21T20:33:13.918Z,6.93
2023-01-21T20:35:40.909Z,6.82
2023-01-21T20:38:13.653Z,6.78
2023-01-21T20:40:41.132Z,5.22
2023-01-21T20:43:08.181Z,4.72
2023-01-21T20:45:40.895Z,6.18
2023-01-21T20:48:14.408Z,5.72
2023-01-21T20:50:41.304Z,6.55
2023-01-21T20:53:11.969Z,6.65
2023-01-21T20:55:38.803Z,6.32
2023-01-21T20:58:06.206Z,5.70
2023-01-21T21:00:35.024Z,6.07
2023-01-21T21:03:02.073Z,5.40
2023-01-21T21:05:29.046Z,5.00
2023-01-21T21:07:56.418Z,5.40
2023-01-21T21:10:36.215Z,6.43
2023-01-21T21:13:04.399Z,4.13
2023-01-21T21:15:33.407Z,4.15
2023-01-21T21:18:00.703Z,4.10
2023-01-21T21:20:33.275Z,4.10
2023-01-21T21:23:00.142Z,4.10
2023-01-21T21:25:29.569Z,5.05
2023-01-21T21:27:56.921Z,4.72
2023-01-21T21:30:27.576Z,3.38
2023-01-21T21:32:56.290Z,3.88
2023-01-21T21:35:31.810Z,4.35
2023-01-21T21:38:02.992Z,4.22
2023-01-21T21:40:29.932Z,5.53
2023-01-21T21:43:16.631Z,5.25
2023-01-21T21:46:02.785Z,7.03
2023-01-21T21:48:39.428Z,6.20
2023-01-21T21:51:10.455Z,8.65
2023-01-21T21:53:38.263Z,6.32
2023-01-21T21:56:07.175Z,4.88
2023-01-21T21:58:34.276Z,6.07
2023-01-21T22:01:30.395Z,7.00
2023-01-21T22:04:03.958Z,6.53
2023-01-21T22:06:31.555Z,5.85
2023-01-21T22:08:58.986Z,6.00
2023-01-21T22:11:27.623Z,9.05
2023-01-21T22:13:55.787Z,7.50
2023-01-21T22:16:27.851Z,7.03
2023-01-21T22:18:56.241Z,5.53
2023-01-21T22:21:28.853Z,4.95
2023-01-21T22:23:56.026Z,5.13
2023-01-21T22:26:24.887Z,5.05
2023-01-21T22:28:52.632Z,7.90
2023-01-21T22:31:23.031Z,6.40
2023-01-21T22:33:50.612Z,5.75
2023-01-21T22:36:20.124Z,4.68
2023-01-21T22:38:47.334Z,4.57
2023-01-21T22:41:16.330Z,3.92
2023-01-21T22:43:50.330Z,6.50
2023-01-21T22:46:25.790Z,5.38
2023-01-21T22:48:54.061Z,4.82
2023-01-21T22:51:22.242Z,4.60
2023-01-21T22:53:50.014Z,7.03
2023-01-21T22:56:19.465Z,6.70
2023-01-21T22:58:46.475Z,6.03
2023-01-21T23:01:24.280Z,7.15
2023-01-21T23:03:51.507Z,6.72
2023-01-21T23:06:18.832Z,8.63
2023-01-21T23:08:46.294Z,7.45
2023-01-21T23:11:15.092Z,10.55
2023-01-21T23:13:42.144Z,13.10
2023-01-21T23:16:11.525Z,9.70
2023-01-21T23:18:40.470Z,8.45
2023-01-21T23:21:09.255Z,6.88
2023-01-21T23:23:37.834Z,7.65
2023-01-21T23:26:07.016Z,8.20
2023-01-21T23:28:34.358Z,8.23
2023-01-21T23:31:09.307Z,6.55
2023-01-21T23:33:36.527Z,6.18
2023-01-21T23:36:03.559Z,6.72
2023-01-21T23:38:30.403Z,5.95
2023-01-21T23:40:57.711Z,7.53
2023-01-21T23:43:28.123Z,8.07
2023-01-21T23:45:55.650Z,5.28
2023-01-21T23:48:23.122Z,5.90
2023-01-21T23:50:50.302Z,8.02
2023-01-21T23:53:17.517Z,6.30
2023-01-21T23:55:44.317Z,6.07
2023-01-21T23:58:11.101Z,7.07
